createdAt,value
2017-08-18T00:01:53.468Z,21.00
2017-08-18T00:07:09.947Z,21.20
2017-08-18T00:12:15.691Z,21.20
2017-08-18T00:17:17.459Z,21.20
2017-08-18T00:22:19.691Z,21.20
2017-08-18T00:27:22.330Z,21.20
2017-08-18T00:32:23.871Z,21.20
2017-08-18T00:37:26.030Z,21.10
2017-08-18T00:42:27.668Z,21.20
2017-08-18T00:47:29.239Z,21.30
2017-08-18T00:52:30.832Z,21.30
2017-08-18T00:57:32.448Z,21.10
2017-08-18T01:02:34.152Z,21.10
2017-08-18T01:07:35.830Z,21.20
2017-08-18T01:12:38.069Z,21.20
2017-08-18T01:17:39.785Z,21.10
2017-08-18T01:22:41.427Z,21.00
2017-08-18T01:27:43.631Z,20.90
2017-08-18T01:32:45.389Z,20.80
2017-08-18T01:37:47.089Z,20.60
2017-08-18T01:42:48.763Z,20.60
2017-08-18T01:47:50.435Z,20.50
2017-08-18T01:52:52.000Z,20.60
2017-08-18T01:57:53.576Z,20.30
2017-08-18T02:02:55.698Z,20.30
2017-08-18T02:07:57.331Z,20.40
2017-08-18T02:12:58.976Z,20.30
2017-08-18T02:18:00.676Z,20.30
2017-08-18T02:23:03.420Z,20.30
2017-08-18T02:28:05.635Z,20.20
2017-08-18T02:33:07.744Z,20.20
2017-08-18T02:38:24.307Z,20.20
2017-08-18T02:43:40.729Z,20.10
2017-08-18T02:48:57.323Z,20.10
2017-08-18T02:54:13.673Z,20.30
2017-08-18T02:59:30.169Z,20.50
2017-08-18T03:04:46.599Z,20.60
2017-08-18T03:10:03.087Z,20.70
2017-08-18T03:15:19.611Z,20.80
2017-08-18T03:20:21.377Z,20.90
2017-08-18T03:25:23.592Z,20.90
2017-08-18T03:30:25.309Z,21.00
2017-08-18T03:35:26.875Z,21.00
2017-08-18T03:40:28.419Z,21.00
2017-08-18T03:45:30.045Z,20.90
2017-08-18T03:50:32.556Z,20.90
2017-08-18T03:55:34.185Z,20.80
2017-08-18T04:00:35.752Z,20.80
2017-08-18T04:05:37.660Z,20.80
2017-08-18T04:10:39.949Z,20.80
2017-08-18T04:15:41.592Z,20.70
2017-08-18T04:20:43.367Z,20.80
2017-08-18T04:25:45.244Z,20.80
2017-08-18T04:30:48.230Z,20.80
2017-08-18T04:35:49.983Z,20.60
2017-08-18T04:40:55.754Z,20.30
2017-08-18T04:45:57.415Z,20.30
2017-08-18T04:51:00.680Z,20.40
2017-08-18T04:56:02.447Z,20.50
2017-08-18T05:01:04.763Z,20.50
2017-08-18T05:06:07.618Z,20.70
2017-08-18T05:11:09.338Z,20.70
2017-08-18T05:16:10.997Z,20.60
2017-08-18T05:21:13.255Z,20.50
2017-08-18T05:26:14.972Z,20.40
2017-08-18T05:31:16.621Z,20.30
2017-08-18T05:36:19.212Z,20.30
2017-08-18T05:41:21.014Z,20.20
2017-08-18T05:46:22.615Z,20.30
2017-08-18T05:51:25.184Z,20.30
2017-08-18T05:56:27.419Z,20.60
2017-08-18T06:01:29.112Z,20.90
2017-08-18T06:06:31.746Z,21.10
2017-08-18T06:11:36.503Z,21.20
2017-08-18T06:16:38.251Z,21.20
2017-08-18T06:21:39.925Z,21.20
2017-08-18T06:26:41.523Z,21.40
2017-08-18T06:31:43.372Z,21.40
2017-08-18T06:36:45.045Z,21.30
2017-08-18T06:41:47.159Z,21.20
2017-08-18T06:46:48.801Z,21.20
2017-08-18T06:51:50.416Z,21.20
2017-08-18T06:56:52.146Z,21.20
2017-08-18T07:01:53.780Z,21.20
2017-08-18T07:06:55.948Z,21.40
2017-08-18T07:11:58.495Z,21.30
2017-08-18T07:17:00.169Z,21.30
2017-08-18T07:22:01.813Z,21.30
2017-08-18T07:27:07.376Z,21.20
2017-08-18T07:32:15.797Z,21.20
2017-08-18T07:37:17.853Z,21.20
2017-08-18T07:42:19.588Z,21.20
2017-08-18T07:47:22.051Z,21.20
2017-08-18T07:52:23.859Z,21.30
2017-08-18T07:57:25.484Z,21.50
2017-08-18T08:02:27.175Z,21.50
2017-08-18T08:07:29.871Z,21.70
2017-08-18T08:12:36.463Z,22.10
2017-08-18T08:17:38.647Z,23.00
2017-08-18T08:22:40.912Z,23.50
2017-08-18T08:27:42.648Z,24.40
2017-08-18T08:32:45.660Z,24.90
2017-08-18T08:37:49.271Z,23.90
2017-08-18T08:42:51.030Z,23.40
2017-08-18T08:47:52.675Z,23.10
2017-08-18T08:52:54.352Z,23.70
2017-08-18T08:57:57.072Z,23.50
2017-08-18T09:03:00.187Z,23.50
2017-08-18T09:08:01.852Z,24.30
2017-08-18T09:13:03.412Z,24.80
2017-08-18T09:18:05.194Z,25.90
2017-08-18T09:23:06.867Z,26.40
2017-08-18T09:28:09.428Z,25.00
2017-08-18T09:33:11.688Z,25.10
2017-08-18T09:38:13.527Z,24.70
2017-08-18T09:43:15.172Z,24.50
2017-08-18T09:48:28.957Z,24.50
2017-08-18T09:53:43.941Z,24.00
2017-08-18T09:58:55.824Z,24.50
2017-08-18T10:03:57.529Z,24.40
2017-08-18T10:08:59.128Z,24.20
2017-08-18T10:14:00.803Z,24.70
2017-08-18T10:19:02.480Z,24.50
2017-08-18T10:24:04.219Z,24.40
2017-08-18T10:29:06.888Z,24.10
2017-08-18T10:34:08.560Z,25.40
2017-08-18T10:39:10.232Z,25.60
2017-08-18T10:44:12.927Z,25.00
2017-08-18T10:49:14.630Z,25.00
2017-08-18T10:54:16.228Z,24.90
2017-08-18T10:59:18.999Z,24.60
2017-08-18T11:04:20.644Z,25.30
2017-08-18T11:09:23.312Z,26.10
2017-08-18T11:14:24.968Z,25.80
2017-08-18T11:19:26.647Z,26.30
2017-08-18T11:24:28.363Z,26.00
2017-08-18T11:29:30.009Z,26.10
2017-08-18T11:34:32.747Z,26.80
2017-08-18T11:39:34.400Z,26.60
2017-08-18T11:44:36.103Z,26.40
2017-08-18T11:49:38.315Z,26.90
2017-08-18T11:54:39.958Z,26.70
2017-08-18T11:59:42.453Z,26.50
2017-08-18T12:04:44.051Z,26.40
2017-08-18T12:09:45.799Z,26.50
2017-08-18T12:14:48.496Z,26.50
2017-08-18T12:19:50.987Z,26.40
2017-08-18T12:24:53.254Z,26.40
2017-08-18T12:29:55.896Z,26.50
2017-08-18T12:34:58.667Z,26.30
2017-08-18T12:40:00.338Z,26.20
2017-08-18T12:45:02.117Z,26.70
2017-08-18T12:50:03.790Z,26.80
2017-08-18T12:55:05.469Z,26.60
2017-08-18T13:00:07.621Z,26.50
2017-08-18T13:05:09.356Z,26.40
2017-08-18T13:10:11.093Z,26.40
2017-08-18T13:15:12.867Z,26.30
2017-08-18T13:20:15.562Z,26.20
2017-08-18T13:25:17.755Z,26.10
2017-08-18T13:30:20.169Z,26.00
2017-08-18T13:35:22.357Z,25.90
2017-08-18T13:40:25.643Z,25.80
2017-08-18T13:45:29.459Z,25.50
2017-08-18T13:50:32.090Z,25.40
2017-08-18T13:55:33.694Z,25.40
2017-08-18T14:00:35.436Z,25.30
2017-08-18T14:05:37.148Z,25.20
2017-08-18T14:10:38.847Z,25.10
2017-08-18T14:15:40.493Z,25.00
2017-08-18T14:20:42.265Z,25.20
2017-08-18T14:25:49.940Z,25.20
2017-08-18T14:30:51.661Z,25.10
2017-08-18T14:35:53.355Z,25.00
2017-08-18T14:40:55.030Z,24.90
2017-08-18T14:45:56.680Z,24.60
2017-08-18T14:50:59.402Z,24.30
2017-08-18T14:56:01.073Z,24.10
2017-08-18T15:01:06.120Z,20.50
2017-08-18T15:06:08.616Z,20.10
2017-08-18T15:11:10.289Z,20.20
2017-08-18T15:16:12.988Z,20.20
2017-08-18T15:21:39.092Z,19.90
2017-08-18T15:26:40.906Z,20.40
2017-08-18T15:31:43.024Z,20.70
2017-08-18T15:36:46.927Z,20.80
2017-08-18T15:41:48.587Z,21.20
2017-08-18T15:46:50.840Z,21.00
2017-08-18T15:51:52.520Z,21.20
2017-08-18T15:56:54.148Z,21.10
2017-08-18T16:01:55.865Z,20.70
2017-08-18T16:06:57.541Z,20.80
2017-08-18T16:12:01.016Z,20.90
2017-08-18T16:17:02.754Z,21.30
2017-08-18T16:22:04.424Z,21.00
2017-08-18T16:27:06.099Z,20.80
2017-08-18T16:32:07.720Z,20.20
2017-08-18T16:37:09.417Z,20.00
2017-08-18T16:42:12.098Z,19.30
2017-08-18T16:47:13.744Z,18.90
2017-08-18T16:52:16.380Z,18.60
2017-08-18T16:57:18.080Z,18.70
2017-08-18T17:02:19.824Z,19.00
2017-08-18T17:07:21.529Z,19.20
2017-08-18T17:12:23.202Z,19.10
2017-08-18T17:17:24.875Z,19.10
2017-08-18T17:22:26.548Z,18.90
2017-08-18T17:27:28.888Z,18.80
2017-08-18T17:32:30.468Z,18.60
2017-08-18T17:37:32.182Z,18.50
2017-08-18T17:42:34.376Z,18.60
2017-08-18T17:47:36.116Z,18.40
2017-08-18T17:52:37.814Z,18.30
2017-08-18T17:57:39.391Z,18.30
2017-08-18T18:02:40.964Z,18.00
2017-08-18T18:07:42.529Z,18.10
2017-08-18T18:12:44.092Z,18.20
2017-08-18T18:17:45.664Z,18.10
2017-08-18T18:22:47.509Z,18.20
2017-08-18T18:27:50.848Z,17.90
2017-08-18T18:32:52.612Z,18.00
2017-08-18T18:37:55.107Z,18.20
2017-08-18T18:42:56.704Z,18.10
2017-08-18T18:47:58.265Z,18.20
2017-08-18T18:53:01.072Z,18.10
2017-08-18T18:58:02.781Z,18.10
2017-08-18T19:03:04.508Z,18.00
2017-08-18T19:08:06.121Z,17.80
2017-08-18T19:13:07.729Z,17.60
2017-08-18T19:18:09.365Z,17.60
2017-08-18T19:23:10.940Z,17.40
2017-08-18T19:28:12.551Z,17.50
2017-08-18T19:33:14.319Z,17.50
2017-08-18T19:38:15.949Z,17.30
2017-08-18T19:43:17.964Z,17.40
2017-08-18T19:48:19.697Z,17.40
2017-08-18T20:04:13.885Z,17.30
2017-08-18T20:09:15.557Z,17.30
2017-08-18T20:14:17.128Z,17.20
2017-08-18T20:19:18.797Z,17.20
2017-08-18T20:24:20.364Z,17.30
2017-08-18T20:29:21.927Z,17.20
2017-08-18T20:34:23.616Z,17.20
2017-08-18T20:39:25.192Z,17.20
2017-08-18T20:44:26.772Z,17.20
2017-08-18T20:49:28.354Z,17.30
2017-08-18T20:54:29.941Z,17.20
2017-08-18T20:59:31.508Z,17.10
2017-08-18T21:04:33.076Z,17.10
2017-08-18T21:09:34.661Z,17.10
2017-08-18T21:14:36.220Z,17.30
2017-08-18T21:19:37.789Z,17.20
2017-08-18T21:24:39.377Z,17.20
2017-08-18T21:29:40.904Z,17.20
2017-08-18T21:34:44.036Z,17.30
2017-08-18T21:39:45.673Z,17.30
2017-08-18T21:44:47.311Z,17.20
2017-08-18T21:49:48.882Z,17.20
2017-08-18T21:54:50.459Z,17.10
2017-08-18T21:59:52.040Z,17.10
2017-08-18T22:04:53.613Z,17.10
2017-08-18T22:09:55.184Z,17.10
2017-08-18T22:14:56.783Z,16.90
2017-08-18T22:19:58.356Z,16.90
2017-08-18T22:24:59.933Z,16.90
2017-08-18T22:30:01.512Z,16.90
2017-08-18T22:35:03.082Z,16.80
2017-08-18T22:40:04.653Z,16.90
2017-08-18T22:45:06.225Z,17.00
2017-08-18T22:50:07.791Z,17.00
2017-08-18T22:55:09.379Z,16.90
2017-08-18T23:00:10.950Z,16.90
2017-08-18T23:05:12.522Z,16.90
2017-08-18T23:10:14.095Z,17.00
2017-08-18T23:15:15.668Z,17.00
2017-08-18T23:20:17.239Z,17.00
2017-08-18T23:25:18.807Z,17.00
2017-08-18T23:30:20.400Z,17.00
2017-08-18T23:35:21.925Z,17.00
2017-08-18T23:40:23.486Z,17.00
2017-08-18T23:45:25.067Z,17.00
2017-08-18T23:50:26.643Z,16.90
2017-08-18T23:55:28.257Z,16.80
